createdAt,value
2017-11-28T00:01:19.864Z,99.30
2017-11-28T00:03:47.730Z,99.50
2017-11-28T00:06:15.600Z,99.50
2017-11-28T00:08:43.464Z,99.30
2017-11-28T00:11:11.334Z,99.20
2017-11-28T00:13:39.200Z,99.50
2017-11-28T00:16:07.070Z,99.60
2017-11-28T00:18:34.934Z,99.50
2017-11-28T00:21:02.801Z,99.50
2017-11-28T00:23:30.668Z,99.50
2017-11-28T00:25:58.642Z,99.50
2017-11-28T00:28:26.506Z,99.40
2017-11-28T00:30:54.374Z,99.60
2017-11-28T00:33:22.246Z,99.60
2017-11-28T00:35:50.107Z,99.60
2017-11-28T00:38:17.976Z,99.60
2017-11-28T00:40:45.844Z,99.70
2017-11-28T00:43:13.710Z,99.50
2017-11-28T00:45:41.576Z,99.60
2017-11-28T00:48:09.444Z,99.60
2017-11-28T00:50:37.310Z,99.70
2017-11-28T00:53:05.179Z,99.90
2017-11-28T00:55:33.045Z,99.80
2017-11-28T00:58:00.913Z,99.90
2017-11-28T01:00:28.788Z,99.90
2017-11-28T01:02:56.648Z,99.90
2017-11-28T01:05:24.515Z,99.90
2017-11-28T01:07:52.383Z,99.90
2017-11-28T01:10:20.249Z,99.90
2017-11-28T01:12:48.117Z,99.90
2017-11-28T01:15:15.985Z,99.90
2017-11-28T01:17:43.850Z,99.90
2017-11-28T01:20:11.720Z,99.90
2017-11-28T01:22:39.589Z,99.90
2017-11-28T01:25:07.457Z,99.90
2017-11-28T01:27:35.320Z,99.90
2017-11-28T01:30:03.189Z,99.90
2017-11-28T01:32:31.056Z,99.90
2017-11-28T01:34:58.923Z,99.90
2017-11-28T01:37:26.688Z,99.90
2017-11-28T01:39:54.484Z,99.90
2017-11-28T01:42:23.141Z,99.90
2017-11-28T01:44:51.007Z,99.90
2017-11-28T01:47:18.874Z,99.90
2017-11-28T01:49:46.745Z,99.90
2017-11-28T01:52:14.510Z,99.90
2017-11-28T01:54:42.376Z,99.90
2017-11-28T01:57:10.147Z,99.90
2017-11-28T01:59:38.008Z,99.90
2017-11-28T02:02:05.875Z,99.90
2017-11-28T02:04:33.741Z,99.90
2017-11-28T02:07:01.608Z,99.90
2017-11-28T02:09:29.484Z,99.90
2017-11-28T02:11:57.343Z,99.90
2017-11-28T02:14:25.312Z,99.90
2017-11-28T02:16:53.181Z,99.90
2017-11-28T02:19:21.049Z,99.90
2017-11-28T02:21:48.939Z,99.90
2017-11-28T02:24:16.784Z,99.90
2017-11-28T02:26:44.576Z,99.90
2017-11-28T02:29:13.275Z,99.90
2017-11-28T02:31:41.820Z,99.90
2017-11-28T02:34:09.683Z,99.90
2017-11-28T02:36:37.478Z,99.90
2017-11-28T02:39:05.420Z,99.90
2017-11-28T02:41:33.210Z,99.90
2017-11-28T02:44:05.763Z,99.90
2017-11-28T02:46:33.555Z,99.90
2017-11-28T02:49:06.003Z,99.90
2017-11-28T02:51:33.873Z,99.90
2017-11-28T02:54:01.837Z,99.90
2017-11-28T02:56:29.809Z,99.90
2017-11-28T02:58:58.597Z,99.90
2017-11-28T03:01:44.998Z,99.90
2017-11-28T03:04:12.866Z,99.90
2017-11-28T03:06:40.734Z,99.90
2017-11-28T03:09:10.344Z,99.90
2017-11-28T03:11:38.209Z,99.90
2017-11-28T03:14:08.767Z,99.90
2017-11-28T03:16:37.426Z,99.90
2017-11-28T03:19:34.067Z,99.90
2017-11-28T03:22:20.572Z,99.90
2017-11-28T03:25:06.154Z,99.90
2017-11-28T03:27:34.023Z,99.90
2017-11-28T03:30:01.891Z,99.90
2017-11-28T03:32:29.756Z,99.90
2017-11-28T03:34:57.728Z,99.90
2017-11-28T03:37:25.594Z,99.90
2017-11-28T03:39:53.461Z,99.90
2017-11-28T03:42:21.328Z,99.90
2017-11-28T03:47:46.656Z,99.90
2017-11-28T03:50:16.983Z,99.90
2017-11-28T03:52:44.951Z,99.90
2017-11-28T03:55:12.818Z,99.90
2017-11-28T03:57:40.686Z,99.90
2017-11-28T04:00:08.553Z,99.90
2017-11-28T04:02:36.429Z,99.90
2017-11-28T04:05:04.288Z,99.90
2017-11-28T04:07:32.162Z,99.90
2017-11-28T04:10:00.125Z,99.90
2017-11-28T04:12:27.997Z,99.90
2017-11-28T04:14:55.859Z,99.90
2017-11-28T04:17:23.624Z,99.90
2017-11-28T04:19:51.492Z,99.90
2017-11-28T04:22:19.359Z,99.90
2017-11-28T04:24:47.228Z,99.90
2017-11-28T04:27:15.094Z,99.90
2017-11-28T04:29:42.962Z,99.90
2017-11-28T04:32:10.828Z,99.90
2017-11-28T04:34:38.696Z,99.90
2017-11-28T04:37:06.563Z,99.90
2017-11-28T04:39:34.430Z,99.90
2017-11-28T04:42:02.298Z,99.90
2017-11-28T04:44:51.923Z,99.90
2017-11-28T04:47:40.441Z,99.90
2017-11-28T04:50:11.814Z,99.90
2017-11-28T04:52:42.025Z,99.90
2017-11-28T04:55:12.426Z,99.90
2017-11-28T04:57:41.788Z,99.90
2017-11-28T05:00:09.698Z,99.90
2017-11-28T05:02:37.570Z,99.90
2017-11-28T05:05:05.534Z,99.90
2017-11-28T05:07:33.502Z,99.90
2017-11-28T05:10:01.299Z,99.90
2017-11-28T05:12:29.955Z,99.90
2017-11-28T05:14:57.821Z,99.90
2017-11-28T05:17:25.690Z,99.90
2017-11-28T05:19:53.556Z,99.90
2017-11-28T05:22:21.422Z,99.90
2017-11-28T05:24:49.292Z,99.90
2017-11-28T05:27:18.079Z,99.90
2017-11-28T05:29:45.946Z,99.90
2017-11-28T05:32:13.743Z,99.90
2017-11-28T05:34:42.415Z,99.90
2017-11-28T05:37:10.369Z,99.90
2017-11-28T05:39:38.336Z,99.90
2017-11-28T05:42:06.204Z,99.90
2017-11-28T05:44:34.073Z,99.90
2017-11-28T05:47:02.046Z,99.90
2017-11-28T05:49:30.012Z,99.90
2017-11-28T05:51:57.879Z,99.90
2017-11-28T05:54:25.746Z,99.90
2017-11-28T05:56:53.613Z,99.90
2017-11-28T05:59:21.479Z,99.90
2017-11-28T06:01:49.349Z,99.90
2017-11-28T06:04:17.215Z,99.90
2017-11-28T06:06:45.084Z,99.90
2017-11-28T06:09:12.953Z,99.90
2017-11-28T06:11:40.817Z,99.90
2017-11-28T06:14:08.785Z,99.90
2017-11-28T06:16:36.653Z,99.90
2017-11-28T06:19:04.521Z,99.90
2017-11-28T06:21:32.490Z,99.90
2017-11-28T06:24:00.461Z,99.90
2017-11-28T06:26:28.329Z,99.90
2017-11-28T06:28:56.194Z,99.90
2017-11-28T06:31:24.063Z,99.90
2017-11-28T06:33:51.931Z,99.90
2017-11-28T06:36:19.801Z,99.90
2017-11-28T06:38:47.695Z,99.90
2017-11-28T06:41:15.634Z,99.90
2017-11-28T06:43:43.501Z,99.90
2017-11-28T06:46:11.370Z,99.90
2017-11-28T06:48:39.236Z,99.90
2017-11-28T06:51:07.103Z,99.90
2017-11-28T06:53:34.971Z,99.90
2017-11-28T06:56:02.840Z,99.90
2017-11-28T06:58:30.706Z,99.90
2017-11-28T07:00:58.573Z,99.90
2017-11-28T07:03:26.375Z,99.90
2017-11-28T07:05:55.024Z,99.90
2017-11-28T07:08:22.894Z,99.90
2017-11-28T07:10:50.760Z,99.90
2017-11-28T07:13:18.626Z,99.90
2017-11-28T07:15:46.493Z,99.90
2017-11-28T07:18:14.362Z,99.90
2017-11-28T07:20:42.228Z,99.90
2017-11-28T07:23:10.108Z,99.90
2017-11-28T07:25:38.066Z,99.90
2017-11-28T07:28:05.932Z,99.90
2017-11-28T07:30:33.801Z,99.90
2017-11-28T07:33:01.771Z,99.90
2017-11-28T07:35:29.636Z,99.90
2017-11-28T07:37:57.511Z,99.90
2017-11-28T07:40:25.473Z,99.90
2017-11-28T07:42:53.343Z,99.90
2017-11-28T07:45:21.208Z,99.90
2017-11-28T07:47:49.080Z,99.90
2017-11-28T07:50:16.943Z,99.90
2017-11-28T07:52:44.815Z,99.90
2017-11-28T07:55:12.676Z,99.90
2017-11-28T07:57:40.545Z,99.90
2017-11-28T08:00:08.411Z,99.90
2017-11-28T08:02:36.282Z,99.90
2017-11-28T08:05:04.148Z,99.90
2017-11-28T08:07:32.017Z,99.90
2017-11-28T08:09:59.879Z,99.90
2017-11-28T08:12:27.749Z,99.90
2017-11-28T08:14:55.618Z,99.90
2017-11-28T08:17:23.484Z,99.90
2017-11-28T08:19:51.350Z,99.90
2017-11-28T08:22:19.319Z,99.90
2017-11-28T08:24:47.289Z,99.90
2017-11-28T08:27:15.260Z,99.90
2017-11-28T08:29:43.229Z,99.90
2017-11-28T08:32:11.207Z,99.90
2017-11-28T08:34:39.169Z,99.90
2017-11-28T08:37:07.038Z,99.90
2017-11-28T08:39:35.010Z,99.90
2017-11-28T08:42:02.975Z,99.90
2017-11-28T08:44:30.944Z,99.90
2017-11-28T08:46:58.772Z,99.90
2017-11-28T08:49:26.679Z,99.90
2017-11-28T08:51:54.648Z,99.90
2017-11-28T08:54:22.516Z,99.90
2017-11-28T08:56:50.384Z,99.90
2017-11-28T08:59:18.179Z,99.90
2017-11-28T09:01:46.836Z,99.90
2017-11-28T09:04:14.703Z,99.90
2017-11-28T09:06:42.569Z,99.90
2017-11-28T09:09:10.439Z,99.90
2017-11-28T09:11:38.303Z,99.90
2017-11-28T09:14:06.175Z,99.90
2017-11-28T09:16:34.038Z,99.90
2017-11-28T09:19:01.907Z,99.90
2017-11-28T09:21:29.775Z,99.90
2017-11-28T09:23:57.641Z,99.90
2017-11-28T09:26:25.644Z,99.90
2017-11-28T09:28:54.296Z,99.90
2017-11-28T09:31:22.163Z,99.90
2017-11-28T09:33:49.969Z,99.90
2017-11-28T09:36:18.614Z,99.90
2017-11-28T09:38:46.482Z,99.90
2017-11-28T09:41:14.349Z,99.90
2017-11-28T09:43:42.217Z,99.90
2017-11-28T09:46:10.084Z,99.90
2017-11-28T09:48:37.950Z,99.90
2017-11-28T09:51:05.922Z,99.90
2017-11-28T09:53:33.890Z,99.90
2017-11-28T09:56:01.758Z,99.90
2017-11-28T09:58:29.625Z,99.90
2017-11-28T10:00:57.492Z,99.90
2017-11-28T10:03:25.463Z,99.90
2017-11-28T10:05:53.431Z,99.50
2017-11-28T10:08:21.297Z,99.20
2017-11-28T10:10:49.167Z,98.90
2017-11-28T10:13:17.033Z,99.80
2017-11-28T10:15:44.900Z,98.90
2017-11-28T10:18:12.871Z,98.60
2017-11-28T10:20:40.738Z,98.70
2017-11-28T10:23:08.605Z,98.80
2017-11-28T10:25:36.473Z,99.50
2017-11-28T10:28:04.340Z,96.10
2017-11-28T10:30:32.312Z,94.10
2017-11-28T10:33:00.288Z,87.70
2017-11-28T10:35:28.147Z,82.30
2017-11-28T10:37:56.014Z,78.80
2017-11-28T10:40:23.984Z,75.80
2017-11-28T10:42:51.853Z,71.90
2017-11-28T10:45:19.821Z,69.40
2017-11-28T10:47:47.791Z,66.40
2017-11-28T10:50:15.661Z,61.30
2017-11-28T10:52:43.628Z,58.80
2017-11-28T10:55:11.495Z,58.20
2017-11-28T10:57:39.361Z,56.80
2017-11-28T11:00:07.229Z,53.30
2017-11-28T11:02:35.096Z,53.30
2017-11-28T11:05:02.966Z,50.50
2017-11-28T11:07:30.933Z,50.80
2017-11-28T11:09:58.731Z,50.80
2017-11-28T11:12:27.385Z,58.10
2017-11-28T11:14:55.354Z,58.10
2017-11-28T11:17:23.324Z,63.30
2017-11-28T11:19:51.293Z,68.30
2017-11-28T11:22:19.271Z,72.90
2017-11-28T11:24:47.139Z,77.70
2017-11-28T11:27:15.102Z,78.10
2017-11-28T11:29:42.968Z,78.50
2017-11-28T11:32:10.937Z,77.30
2017-11-28T11:34:38.907Z,78.60
2017-11-28T11:37:06.880Z,78.70
2017-11-28T11:39:34.847Z,77.70
2017-11-28T11:42:02.713Z,79.00
2017-11-28T11:44:30.689Z,80.60
2017-11-28T11:46:58.557Z,83.50
2017-11-28T11:49:26.520Z,82.90
2017-11-28T11:51:54.495Z,84.50
2017-11-28T11:54:22.284Z,85.20
2017-11-28T11:56:50.230Z,86.30
2017-11-28T11:59:18.204Z,84.80
2017-11-28T12:01:46.880Z,81.90
2017-11-28T12:04:14.748Z,81.90
2017-11-28T12:06:42.615Z,83.20
2017-11-28T12:09:10.592Z,81.70
2017-11-28T12:11:38.554Z,79.70
2017-11-28T12:14:06.526Z,74.50
2017-11-28T12:16:35.213Z,61.60
2017-11-28T12:19:03.180Z,61.50
2017-11-28T12:21:31.150Z,59.00
2017-11-28T12:23:59.017Z,51.70
2017-11-28T12:26:26.885Z,47.90
2017-11-28T12:28:54.855Z,45.90
2017-11-28T12:31:22.824Z,46.40
2017-11-28T12:33:50.691Z,48.30
2017-11-28T12:36:18.560Z,52.10
2017-11-28T12:38:46.529Z,56.00
2017-11-28T12:41:14.396Z,58.20
2017-11-28T12:43:42.263Z,57.50
2017-11-28T12:46:10.129Z,58.80
2017-11-28T12:48:37.998Z,55.40
2017-11-28T12:51:05.864Z,52.40
2017-11-28T12:53:33.731Z,49.90
2017-11-28T12:56:01.598Z,50.30
2017-11-28T12:58:29.466Z,49.90
2017-11-28T13:00:57.334Z,47.90
2017-11-28T13:03:25.201Z,47.60
2017-11-28T13:05:53.068Z,49.70
2017-11-28T13:08:20.935Z,49.60
2017-11-28T13:10:48.803Z,50.40
2017-11-28T13:13:16.670Z,49.10
2017-11-28T13:15:44.546Z,49.60
2017-11-28T13:18:12.406Z,50.70
2017-11-28T13:20:40.273Z,46.20
2017-11-28T13:23:08.139Z,46.90
2017-11-28T13:25:36.007Z,45.40
2017-11-28T13:28:03.873Z,44.60
2017-11-28T13:30:31.742Z,46.70
2017-11-28T13:32:59.608Z,51.50
2017-11-28T13:35:27.476Z,54.70
2017-11-28T13:37:55.346Z,59.20
2017-11-28T13:40:23.210Z,64.30
2017-11-28T13:42:51.077Z,69.10
2017-11-28T13:45:19.047Z,73.50
2017-11-28T13:47:47.029Z,76.70
2017-11-28T13:50:14.884Z,78.20
2017-11-28T13:52:42.751Z,81.60
2017-11-28T13:55:10.618Z,81.10
2017-11-28T13:57:38.486Z,82.90
2017-11-28T14:00:06.354Z,85.80
2017-11-28T14:02:34.220Z,87.70
2017-11-28T14:05:02.096Z,90.30
2017-11-28T14:07:30.058Z,90.70
2017-11-28T14:09:57.924Z,91.40
2017-11-28T14:12:25.792Z,92.10
2017-11-28T14:14:53.665Z,92.50
2017-11-28T14:17:21.628Z,93.00
2017-11-28T14:20:07.213Z,93.40
2017-11-28T14:22:40.546Z,93.40
2017-11-28T14:25:24.041Z,94.00
2017-11-28T14:28:08.702Z,94.00
2017-11-28T14:30:39.263Z,94.00
2017-11-28T14:33:09.556Z,94.40
2017-11-28T14:35:41.315Z,94.40
2017-11-28T14:38:09.285Z,94.30
2017-11-28T14:40:38.791Z,94.50
2017-11-28T14:43:07.272Z,94.50
2017-11-28T14:45:36.096Z,94.00
2017-11-28T14:48:04.749Z,94.30
2017-11-28T14:50:38.247Z,94.30
2017-11-28T14:53:06.116Z,94.10
2017-11-28T14:55:54.872Z,94.10
2017-11-28T14:58:24.516Z,94.40
2017-11-28T15:01:10.988Z,94.60
2017-11-28T15:03:46.532Z,94.50
2017-11-28T15:06:34.266Z,94.40
2017-11-28T15:09:07.664Z,94.50
2017-11-28T15:11:41.164Z,94.50
2017-11-28T15:14:29.814Z,94.40
2017-11-28T15:17:17.650Z,94.60
2017-11-28T15:19:49.103Z,94.30
2017-11-28T15:22:22.706Z,94.20
2017-11-28T15:24:50.674Z,94.10
2017-11-28T15:27:18.648Z,93.70
2017-11-28T15:29:51.119Z,93.80
2017-11-28T15:32:19.095Z,94.00
2017-11-28T15:34:46.954Z,94.00
2017-11-28T15:37:14.823Z,94.00
2017-11-28T15:39:42.691Z,94.20
2017-11-28T15:42:10.557Z,94.30
2017-11-28T15:44:38.424Z,94.60
2017-11-28T15:47:06.293Z,94.90
2017-11-28T15:49:34.160Z,95.20
2017-11-28T15:52:02.031Z,95.20
2017-11-28T15:54:29.902Z,95.40
2017-11-28T15:56:57.761Z,95.50
2017-11-28T15:59:25.628Z,95.60
2017-11-28T16:01:53.496Z,95.50
2017-11-28T16:04:21.363Z,95.70
2017-11-28T16:06:49.230Z,96.10
2017-11-28T16:09:17.098Z,96.30
2017-11-28T16:11:44.965Z,96.40
2017-11-28T16:14:12.791Z,96.60
2017-11-28T16:16:40.701Z,96.90
2017-11-28T16:19:08.567Z,97.00
2017-11-28T16:21:36.434Z,96.90
2017-11-28T16:24:04.301Z,96.80
2017-11-28T16:26:32.168Z,97.00
2017-11-28T16:29:00.036Z,96.90
2017-11-28T16:31:27.902Z,97.00
2017-11-28T16:33:55.771Z,97.20
2017-11-28T16:36:23.638Z,97.70
2017-11-28T16:38:51.505Z,97.70
2017-11-28T16:41:19.372Z,97.70
2017-11-28T16:43:47.239Z,97.30
2017-11-28T16:46:15.106Z,97.10
2017-11-28T16:48:42.973Z,97.20
2017-11-28T16:51:10.842Z,97.30
2017-11-28T16:53:38.709Z,97.60
2017-11-28T16:56:06.678Z,97.80
2017-11-28T16:58:34.552Z,98.00
2017-11-28T17:01:03.231Z,98.20
2017-11-28T17:03:31.203Z,98.30
2017-11-28T17:05:59.069Z,98.30
2017-11-28T17:08:26.937Z,98.50
2017-11-28T17:10:54.804Z,98.50
2017-11-28T17:13:22.671Z,98.40
2017-11-28T17:15:50.641Z,98.60
2017-11-28T17:18:18.611Z,98.60
2017-11-28T17:20:46.477Z,98.70
2017-11-28T17:23:14.447Z,98.90
2017-11-28T17:25:42.418Z,99.00
2017-11-28T17:28:10.387Z,99.00
2017-11-28T17:30:38.254Z,99.00
2017-11-28T17:33:06.223Z,99.10
2017-11-28T17:35:34.098Z,99.20
2017-11-28T17:38:02.061Z,99.20
2017-11-28T17:40:29.929Z,99.30
2017-11-28T17:42:57.798Z,99.50
2017-11-28T17:45:25.664Z,99.60
2017-11-28T17:47:53.530Z,99.90
2017-11-28T17:50:21.499Z,99.90
2017-11-28T17:52:49.517Z,99.90
2017-11-28T17:55:18.160Z,99.90
2017-11-28T17:57:46.126Z,99.90
2017-11-28T18:00:13.993Z,99.90
2017-11-28T18:02:41.860Z,99.90
2017-11-28T18:05:09.728Z,99.90
2017-11-28T18:07:37.596Z,99.80
2017-11-28T18:10:05.462Z,99.70
2017-11-28T18:12:33.331Z,99.60
2017-11-28T18:15:01.197Z,99.50
2017-11-28T18:17:29.064Z,99.60
2017-11-28T18:19:56.931Z,99.70
2017-11-28T18:22:24.799Z,99.50
2017-11-28T18:24:52.595Z,99.50
2017-11-28T18:27:21.250Z,99.50
2017-11-28T18:29:49.121Z,99.50
2017-11-28T18:32:17.087Z,99.60
2017-11-28T18:34:44.954Z,99.50
2017-11-28T18:37:12.924Z,99.70
2017-11-28T18:39:40.893Z,99.60
2017-11-28T18:42:08.864Z,99.40
2017-11-28T18:44:36.731Z,99.50
2017-11-28T18:47:04.597Z,99.30
2017-11-28T18:49:32.465Z,99.40
2017-11-28T18:52:00.332Z,99.70
2017-11-28T18:54:28.199Z,99.80
2017-11-28T18:56:56.068Z,99.90
2017-11-28T18:59:23.935Z,99.90
2017-11-28T19:01:51.802Z,99.90
2017-11-28T19:04:19.670Z,99.90
2017-11-28T19:06:47.537Z,99.90
2017-11-28T19:09:15.408Z,99.90
2017-11-28T19:11:43.274Z,99.90
2017-11-28T19:14:11.268Z,99.90
2017-11-28T19:16:39.921Z,99.90
2017-11-28T19:19:07.794Z,99.90
2017-11-28T19:21:35.662Z,99.90
2017-11-28T19:24:03.529Z,99.90
2017-11-28T19:26:31.396Z,99.60
2017-11-28T19:28:59.263Z,99.60
2017-11-28T19:31:27.133Z,99.80
2017-11-28T19:33:55.002Z,99.70
2017-11-28T19:36:22.868Z,99.30
2017-11-28T19:38:50.736Z,98.90
2017-11-28T19:41:18.600Z,98.50
2017-11-28T19:43:46.474Z,98.30
2017-11-28T19:46:14.439Z,98.20
2017-11-28T19:48:42.306Z,98.00
2017-11-28T19:51:10.275Z,97.90
2017-11-28T19:53:38.275Z,97.90
2017-11-28T19:56:07.037Z,97.80
2017-11-28T19:58:35.004Z,97.80
2017-11-28T20:01:02.980Z,97.80
2017-11-28T20:03:30.840Z,97.80
2017-11-28T20:05:58.810Z,97.70
2017-11-28T20:08:26.779Z,97.60
2017-11-28T20:10:54.748Z,97.60
2017-11-28T20:13:22.719Z,97.80
2017-11-28T20:15:50.586Z,97.70
2017-11-28T20:18:18.455Z,97.60
2017-11-28T20:20:46.422Z,97.70
2017-11-28T20:23:14.291Z,97.70
2017-11-28T20:25:42.159Z,97.80
2017-11-28T20:28:10.025Z,98.10
2017-11-28T20:30:37.893Z,98.30
2017-11-28T20:33:05.760Z,98.60
2017-11-28T20:35:33.627Z,98.70
2017-11-28T20:38:01.498Z,98.90
2017-11-28T20:40:29.466Z,99.00
2017-11-28T20:42:57.435Z,99.20
2017-11-28T20:45:25.302Z,99.00
2017-11-28T20:47:53.168Z,99.20
2017-11-28T20:50:21.036Z,99.30
2017-11-28T20:52:48.903Z,99.40
2017-11-28T20:55:16.776Z,99.70
2017-11-28T20:57:44.637Z,99.80
2017-11-28T21:00:12.505Z,99.80
2017-11-28T21:02:40.372Z,99.60
2017-11-28T21:05:08.240Z,99.60
2017-11-28T21:07:36.109Z,99.60
2017-11-28T21:10:03.974Z,99.80
2017-11-28T21:12:31.851Z,99.90
2017-11-28T21:14:59.708Z,99.90
2017-11-28T21:17:27.577Z,99.90
2017-11-28T21:19:55.546Z,99.90
2017-11-28T21:22:23.414Z,99.90
2017-11-28T21:24:51.386Z,99.90
2017-11-28T21:27:19.352Z,99.90
2017-11-28T21:29:47.220Z,99.90
2017-11-28T21:32:15.088Z,99.90
2017-11-28T21:34:43.058Z,99.90
2017-11-28T21:37:10.925Z,99.80
2017-11-28T21:39:38.792Z,99.60
2017-11-28T21:42:06.662Z,99.90
2017-11-28T21:44:34.526Z,99.70
2017-11-28T21:47:02.393Z,99.20
2017-11-28T21:49:30.261Z,99.10
2017-11-28T21:51:58.129Z,99.00
2017-11-28T21:54:25.995Z,99.00
2017-11-28T21:56:53.863Z,98.90
2017-11-28T21:59:21.664Z,99.30
2017-11-28T22:01:50.316Z,99.20
2017-11-28T22:04:18.184Z,99.10
2017-11-28T22:06:46.047Z,99.00
2017-11-28T22:09:13.917Z,99.10
2017-11-28T22:11:41.783Z,99.40
2017-11-28T22:14:09.651Z,99.50
2017-11-28T22:16:37.518Z,99.60
2017-11-28T22:19:05.385Z,99.60
2017-11-28T22:21:33.254Z,99.70
2017-11-28T22:24:01.120Z,99.90
2017-11-28T22:26:28.988Z,99.90
2017-11-28T22:28:56.855Z,99.90
2017-11-28T22:31:24.726Z,99.90
2017-11-28T22:33:52.590Z,99.90
2017-11-28T22:36:20.457Z,99.90
2017-11-28T22:38:48.323Z,99.90
2017-11-28T22:41:16.191Z,99.90
2017-11-28T22:43:44.059Z,99.90
2017-11-28T22:46:11.926Z,99.90
2017-11-28T22:48:39.793Z,99.90
2017-11-28T22:51:07.662Z,99.90
2017-11-28T22:53:35.527Z,99.90
2017-11-28T22:56:03.395Z,99.90
2017-11-28T22:58:31.366Z,99.90
2017-11-28T23:00:59.232Z,99.80
2017-11-28T23:03:27.107Z,99.40
2017-11-28T23:05:54.978Z,99.20
2017-11-28T23:08:22.835Z,98.90
2017-11-28T23:10:50.706Z,98.40
2017-11-28T23:13:18.568Z,98.30
2017-11-28T23:15:46.437Z,98.30
2017-11-28T23:18:14.304Z,98.60
2017-11-28T23:20:42.170Z,99.00
2017-11-28T23:23:10.039Z,99.60
2017-11-28T23:25:37.906Z,99.90
2017-11-28T23:28:05.773Z,99.90
2017-11-28T23:30:33.640Z,99.90
2017-11-28T23:33:01.507Z,99.90
2017-11-28T23:35:29.374Z,99.90
2017-11-28T23:37:57.241Z,99.90
2017-11-28T23:40:25.212Z,99.90
2017-11-28T23:42:53.079Z,99.90
2017-11-28T23:45:21.049Z,99.90
2017-11-28T23:47:49.018Z,99.90
2017-11-28T23:50:16.896Z,99.90
2017-11-28T23:52:44.855Z,99.80
2017-11-28T23:55:12.751Z,99.40
2017-11-28T23:57:40.693Z,99.10
